createdAt,value
2018-05-13T00:00:40.332Z,0.00
2018-05-13T00:01:40.229Z,0.00
2018-05-13T00:02:40.137Z,0.00
2018-05-13T00:03:40.038Z,0.00
2018-05-13T00:04:39.947Z,0.00
2018-05-13T00:05:39.852Z,0.00
2018-05-13T00:06:39.749Z,0.00
2018-05-13T00:07:39.659Z,0.00
2018-05-13T00:08:39.556Z,0.00
2018-05-13T00:09:39.464Z,0.00
2018-05-13T00:10:39.360Z,0.00
2018-05-13T00:11:39.270Z,0.00
2018-05-13T00:12:39.180Z,0.00
2018-05-13T00:13:39.080Z,0.00
2018-05-13T00:14:38.989Z,0.00
2018-05-13T00:15:38.886Z,0.00
2018-05-13T00:16:38.791Z,0.00
2018-05-13T00:17:38.701Z,0.00
2018-05-13T00:18:38.597Z,0.00
2018-05-13T00:19:38.505Z,0.00
2018-05-13T00:20:38.477Z,0.00
2018-05-13T00:21:38.313Z,0.00
2018-05-13T00:22:38.210Z,0.00
2018-05-13T00:23:38.119Z,0.00
2018-05-13T00:24:38.016Z,0.00
2018-05-13T00:25:37.930Z,0.00
2018-05-13T00:26:37.833Z,0.00
2018-05-13T00:27:37.729Z,0.00
2018-05-13T00:28:37.639Z,0.00
2018-05-13T00:29:37.536Z,0.00
2018-05-13T00:30:37.445Z,0.00
2018-05-13T00:31:37.343Z,0.00
2018-05-13T00:32:37.252Z,0.00
2018-05-13T00:33:37.162Z,0.00
2018-05-13T00:34:37.067Z,0.00
2018-05-13T00:35:36.966Z,0.00
2018-05-13T00:36:36.864Z,0.00
2018-05-13T00:37:36.772Z,0.00
2018-05-13T00:38:36.669Z,0.00
2018-05-13T00:39:36.829Z,0.00
2018-05-13T00:40:36.487Z,0.00
2018-05-13T00:41:36.383Z,0.00
2018-05-13T00:42:36.294Z,0.00
2018-05-13T00:43:36.190Z,0.00
2018-05-13T00:44:36.100Z,0.00
2018-05-13T00:45:35.996Z,0.00
2018-05-13T00:46:35.906Z,0.00
2018-05-13T00:47:35.814Z,0.00
2018-05-13T00:48:35.710Z,0.00
2018-05-13T00:49:35.620Z,0.00
2018-05-13T00:50:35.539Z,0.00
2018-05-13T00:51:35.426Z,0.00
2018-05-13T00:52:35.323Z,0.00
2018-05-13T00:53:35.231Z,0.00
2018-05-13T00:54:35.140Z,0.00
2018-05-13T00:55:35.037Z,0.00
2018-05-13T00:56:34.947Z,0.00
2018-05-13T00:57:34.843Z,0.00
2018-05-13T00:58:34.752Z,0.00
2018-05-13T00:59:34.649Z,0.00
2018-05-13T01:00:34.559Z,0.00
2018-05-13T01:01:34.467Z,0.00
2018-05-13T01:02:34.369Z,0.00
2018-05-13T01:03:34.274Z,0.00
2018-05-13T01:04:34.171Z,0.00
2018-05-13T01:05:34.079Z,0.00
2018-05-13T01:06:33.976Z,0.00
2018-05-13T01:07:33.885Z,0.00
2018-05-13T01:08:33.793Z,0.00
2018-05-13T01:09:33.690Z,0.00
2018-05-13T01:10:33.600Z,0.00
2018-05-13T01:11:33.497Z,0.00
2018-05-13T01:12:33.407Z,0.00
2018-05-13T01:13:33.302Z,0.00
2018-05-13T01:14:33.216Z,0.00
2018-05-13T01:15:33.112Z,0.00
2018-05-13T01:16:33.031Z,0.00
2018-05-13T01:17:32.935Z,0.00
2018-05-13T01:18:32.906Z,0.00
2018-05-13T01:19:33.034Z,0.00
2018-05-13T01:20:32.651Z,0.00
2018-05-13T01:21:32.539Z,0.00
2018-05-13T01:22:32.435Z,0.00
2018-05-13T01:23:32.343Z,0.00
2018-05-13T01:24:32.243Z,0.00
2018-05-13T01:25:32.154Z,0.00
2018-05-13T01:26:32.059Z,0.00
2018-05-13T01:27:31.956Z,0.00
2018-05-13T01:28:31.866Z,0.00
2018-05-13T01:29:31.762Z,0.00
2018-05-13T01:30:31.671Z,0.00
2018-05-13T01:31:31.567Z,0.00
2018-05-13T01:32:31.481Z,0.00
2018-05-13T01:33:31.375Z,0.00
2018-05-13T01:34:31.282Z,0.00
2018-05-13T01:35:31.193Z,0.00
2018-05-13T01:36:31.092Z,0.00
2018-05-13T01:37:30.997Z,0.00
2018-05-13T01:38:30.895Z,0.00
2018-05-13T01:39:30.804Z,0.00
2018-05-13T01:40:30.703Z,0.00
2018-05-13T01:41:30.610Z,0.00
2018-05-13T01:42:30.508Z,0.00
2018-05-13T01:43:30.418Z,0.00
2018-05-13T01:44:30.325Z,0.00
2018-05-13T01:45:30.221Z,0.00
2018-05-13T01:46:30.132Z,0.00
2018-05-13T01:47:30.028Z,0.00
2018-05-13T01:48:29.936Z,0.00
2018-05-13T01:49:29.833Z,0.00
2018-05-13T01:50:29.743Z,0.00
2018-05-13T01:51:29.644Z,0.00
2018-05-13T01:52:29.551Z,0.00
2018-05-13T01:53:29.447Z,0.00
2018-05-13T01:54:29.357Z,0.00
2018-05-13T01:55:29.264Z,0.00
2018-05-13T01:56:29.161Z,0.00
2018-05-13T01:57:29.072Z,0.00
2018-05-13T01:58:28.966Z,0.00
2018-05-13T01:59:28.875Z,0.00
2018-05-13T02:00:28.772Z,0.00
2018-05-13T02:01:28.682Z,0.00
2018-05-13T02:02:28.579Z,0.00
2018-05-13T02:03:28.488Z,0.00
2018-05-13T02:04:28.396Z,0.00
2018-05-13T02:05:28.293Z,0.00
2018-05-13T02:06:28.202Z,0.00
2018-05-13T02:07:28.098Z,0.00
2018-05-13T02:08:28.009Z,0.00
2018-05-13T02:09:27.905Z,0.00
2018-05-13T02:10:27.813Z,0.00
2018-05-13T02:11:27.713Z,0.00
2018-05-13T02:12:27.620Z,0.00
2018-05-13T02:13:27.517Z,0.00
2018-05-13T02:14:27.428Z,0.00
2018-05-13T02:15:27.336Z,0.00
2018-05-13T02:16:27.231Z,0.00
2018-05-13T02:17:27.141Z,0.00
2018-05-13T02:18:27.038Z,0.00
2018-05-13T02:19:26.947Z,0.00
2018-05-13T02:20:26.844Z,0.00
2018-05-13T02:21:26.752Z,0.00
2018-05-13T02:22:26.648Z,0.00
2018-05-13T02:23:26.559Z,0.00
2018-05-13T02:24:26.766Z,0.00
2018-05-13T02:25:26.367Z,0.00
2018-05-13T02:26:26.274Z,0.00
2018-05-13T02:27:26.170Z,0.00
2018-05-13T02:28:26.079Z,0.00
2018-05-13T02:29:25.975Z,0.00
2018-05-13T02:30:25.886Z,0.00
2018-05-13T02:31:25.783Z,0.00
2018-05-13T02:32:25.690Z,0.00
2018-05-13T02:33:25.588Z,0.00
2018-05-13T02:34:25.553Z,0.00
2018-05-13T02:35:25.396Z,0.00
2018-05-13T02:36:25.309Z,0.00
2018-05-13T02:37:25.203Z,0.00
2018-05-13T02:38:25.103Z,0.00
2018-05-13T02:39:25.018Z,0.00
2018-05-13T02:40:24.927Z,0.00
2018-05-13T02:41:24.824Z,0.00
2018-05-13T02:42:24.722Z,0.00
2018-05-13T02:43:24.634Z,0.00
2018-05-13T02:44:24.778Z,0.00
2018-05-13T02:45:24.436Z,0.00
2018-05-13T02:46:24.334Z,0.00
2018-05-13T02:47:24.241Z,0.00
2018-05-13T02:48:24.138Z,0.00
2018-05-13T02:49:24.047Z,0.00
2018-05-13T02:50:23.949Z,0.00
2018-05-13T02:51:23.855Z,0.00
2018-05-13T02:52:23.763Z,0.00
2018-05-13T02:53:23.664Z,0.00
2018-05-13T02:54:23.568Z,0.00
2018-05-13T02:55:23.465Z,0.00
2018-05-13T02:56:23.381Z,0.00
2018-05-13T02:57:23.275Z,0.00
2018-05-13T02:58:23.179Z,0.00
2018-05-13T02:59:23.076Z,0.00
2018-05-13T03:00:22.987Z,0.00
2018-05-13T03:01:22.884Z,0.00
2018-05-13T03:02:22.792Z,0.00
2018-05-13T03:03:22.689Z,0.00
2018-05-13T03:04:22.848Z,0.00
2018-05-13T03:05:22.495Z,0.00
2018-05-13T03:06:22.403Z,0.00
2018-05-13T03:07:22.315Z,0.00
2018-05-13T03:08:22.210Z,0.00
2018-05-13T03:09:22.120Z,5.63
2018-05-13T03:10:22.021Z,5.63
2018-05-13T03:11:21.925Z,5.63
2018-05-13T03:12:21.822Z,5.63
2018-05-13T03:13:21.729Z,5.63
2018-05-13T03:14:21.628Z,5.63
2018-05-13T03:15:21.536Z,5.63
2018-05-13T03:16:21.445Z,5.63
2018-05-13T03:17:21.343Z,5.63
2018-05-13T03:18:21.241Z,11.25
2018-05-13T03:19:21.148Z,11.25
2018-05-13T03:20:21.056Z,11.25
2018-05-13T03:21:20.956Z,11.25
2018-05-13T03:22:20.863Z,11.25
2018-05-13T03:23:20.759Z,11.25
2018-05-13T03:24:20.668Z,11.25
2018-05-13T03:25:20.565Z,16.88
2018-05-13T03:26:20.476Z,16.88
2018-05-13T03:27:20.375Z,16.88
2018-05-13T03:28:20.280Z,16.88
2018-05-13T03:29:20.177Z,16.88
2018-05-13T03:30:20.088Z,22.50
2018-05-13T03:31:19.995Z,22.50
2018-05-13T03:32:19.893Z,22.50
2018-05-13T03:33:19.802Z,22.50
2018-05-13T03:34:19.699Z,28.13
2018-05-13T03:35:19.611Z,28.13
2018-05-13T03:36:19.504Z,28.13
2018-05-13T03:37:19.415Z,28.13
2018-05-13T03:38:19.310Z,33.75
2018-05-13T03:39:19.219Z,33.75
2018-05-13T03:40:19.117Z,33.75
2018-05-13T03:41:19.026Z,33.75
2018-05-13T03:42:18.924Z,39.38
2018-05-13T03:43:18.831Z,39.38
2018-05-13T03:44:18.741Z,39.38
2018-05-13T03:45:18.637Z,45.00
2018-05-13T03:46:18.546Z,45.00
2018-05-13T03:47:18.443Z,45.00
2018-05-13T03:48:18.353Z,50.63
2018-05-13T03:49:18.252Z,50.63
2018-05-13T03:50:18.157Z,56.25
2018-05-13T03:51:18.054Z,56.25
2018-05-13T03:52:17.964Z,56.25
2018-05-13T03:53:17.872Z,56.25
2018-05-13T03:54:17.769Z,61.88
2018-05-13T03:55:17.680Z,61.88
2018-05-13T03:56:17.575Z,61.88
2018-05-13T03:57:17.483Z,67.50
2018-05-13T03:58:17.381Z,67.50
2018-05-13T03:59:17.294Z,67.50
2018-05-13T04:00:17.188Z,73.13
2018-05-13T04:01:17.095Z,73.13
2018-05-13T04:02:17.005Z,73.13
2018-05-13T04:03:16.902Z,78.75
2018-05-13T04:04:17.062Z,78.75
2018-05-13T04:05:16.707Z,84.38
2018-05-13T04:06:16.622Z,90.00
2018-05-13T04:07:16.587Z,90.00
2018-05-13T04:08:16.424Z,95.63
2018-05-13T04:09:16.333Z,95.63
2018-05-13T04:10:16.230Z,95.63
2018-05-13T04:11:16.138Z,101.25
2018-05-13T04:12:16.035Z,101.25
2018-05-13T04:13:15.944Z,101.25
2018-05-13T04:14:15.844Z,101.25
2018-05-13T04:15:15.749Z,106.88
2018-05-13T04:16:15.660Z,106.88
2018-05-13T04:17:15.559Z,112.50
2018-05-13T04:18:15.465Z,106.88
2018-05-13T04:19:15.376Z,112.50
2018-05-13T04:20:15.272Z,112.50
2018-05-13T04:21:15.180Z,118.13
2018-05-13T04:22:15.077Z,118.13
2018-05-13T04:23:14.986Z,123.75
2018-05-13T04:24:14.896Z,129.38
2018-05-13T04:25:14.795Z,146.25
2018-05-13T04:26:14.702Z,146.25
2018-05-13T04:27:14.609Z,157.50
2018-05-13T04:28:14.519Z,157.50
2018-05-13T04:29:14.449Z,157.50
2018-05-13T04:30:14.314Z,174.38
2018-05-13T04:31:14.221Z,185.63
2018-05-13T04:32:14.130Z,191.25
2018-05-13T04:33:14.028Z,196.88
2018-05-13T04:34:13.936Z,196.88
2018-05-13T04:35:13.846Z,202.50
2018-05-13T04:36:13.743Z,202.50
2018-05-13T04:37:13.665Z,208.13
2018-05-13T04:38:13.566Z,208.13
2018-05-13T04:39:13.462Z,213.75
2018-05-13T04:40:13.366Z,219.38
2018-05-13T04:41:13.279Z,225.00
2018-05-13T04:42:13.184Z,225.00
2018-05-13T04:43:13.082Z,225.00
2018-05-13T04:44:12.992Z,230.63
2018-05-13T04:45:12.900Z,236.25
2018-05-13T04:46:12.799Z,236.25
2018-05-13T04:47:12.707Z,241.88
2018-05-13T04:48:12.615Z,247.50
2018-05-13T04:49:12.525Z,253.13
2018-05-13T04:50:12.422Z,253.13
2018-05-13T04:51:12.330Z,264.38
2018-05-13T04:52:12.239Z,264.38
2018-05-13T04:53:12.149Z,270.00
2018-05-13T04:54:12.061Z,270.00
2018-05-13T04:55:11.955Z,275.63
2018-05-13T04:56:11.863Z,281.25
2018-05-13T04:57:11.776Z,286.88
2018-05-13T04:58:11.681Z,286.88
2018-05-13T04:59:11.592Z,292.50
2018-05-13T05:00:11.489Z,298.13
2018-05-13T05:01:11.396Z,298.13
2018-05-13T05:02:11.306Z,303.75
2018-05-13T05:03:11.215Z,309.38
2018-05-13T05:04:11.125Z,320.63
2018-05-13T05:05:11.038Z,315.00
2018-05-13T05:06:10.930Z,320.63
2018-05-13T05:07:10.842Z,326.25
2018-05-13T05:08:10.750Z,331.88
2018-05-13T05:09:10.659Z,337.50
2018-05-13T05:10:10.568Z,343.13
2018-05-13T05:11:10.476Z,348.75
2018-05-13T05:12:10.386Z,354.38
2018-05-13T05:13:10.282Z,360.00
2018-05-13T05:14:10.196Z,360.00
2018-05-13T05:15:10.100Z,365.63
2018-05-13T05:16:10.011Z,376.88
2018-05-13T05:17:09.918Z,382.50
2018-05-13T05:18:09.830Z,388.13
2018-05-13T05:19:09.736Z,399.38
2018-05-13T05:20:09.646Z,399.38
2018-05-13T05:21:09.555Z,405.00
2018-05-13T05:22:09.458Z,410.63
2018-05-13T05:23:09.362Z,416.25
2018-05-13T05:24:09.270Z,427.50
2018-05-13T05:25:09.181Z,433.13
2018-05-13T05:26:09.089Z,444.38
2018-05-13T05:27:09.008Z,450.00
2018-05-13T05:28:08.907Z,450.00
2018-05-13T05:29:08.817Z,461.25
2018-05-13T05:30:08.741Z,472.50
2018-05-13T05:31:08.635Z,483.75
2018-05-13T05:32:08.544Z,495.00
2018-05-13T05:33:08.454Z,506.25
2018-05-13T05:34:08.362Z,528.75
2018-05-13T05:35:08.278Z,545.63
2018-05-13T05:36:08.180Z,568.13
2018-05-13T05:37:08.090Z,596.25
2018-05-13T05:38:07.999Z,624.38
2018-05-13T05:39:07.908Z,652.50
2018-05-13T05:40:07.817Z,675.00
2018-05-13T05:41:07.727Z,697.50
2018-05-13T05:42:07.635Z,720.00
2018-05-13T05:43:07.546Z,731.25
2018-05-13T05:44:07.454Z,748.13
2018-05-13T05:45:07.364Z,765.00
2018-05-13T05:46:07.272Z,759.38
2018-05-13T05:47:07.184Z,765.00
2018-05-13T05:48:07.104Z,753.75
2018-05-13T05:49:07.011Z,753.75
2018-05-13T05:50:06.922Z,736.88
2018-05-13T05:51:06.831Z,736.88
2018-05-13T05:52:06.740Z,725.63
2018-05-13T05:53:06.649Z,720.00
2018-05-13T05:54:06.559Z,720.00
2018-05-13T05:55:06.468Z,720.00
2018-05-13T05:56:06.377Z,720.00
2018-05-13T05:57:06.286Z,720.00
2018-05-13T05:58:06.195Z,725.63
2018-05-13T05:59:06.106Z,725.63
2018-05-13T06:00:06.026Z,731.25
2018-05-13T06:01:05.941Z,736.88
2018-05-13T06:02:05.843Z,742.50
2018-05-13T06:03:05.754Z,748.13
2018-05-13T06:04:05.662Z,759.38
2018-05-13T06:05:05.573Z,770.63
2018-05-13T06:06:05.482Z,776.25
2018-05-13T06:07:05.395Z,787.50
2018-05-13T06:08:05.312Z,787.50
2018-05-13T06:09:05.221Z,798.75
2018-05-13T06:10:05.132Z,815.63
2018-05-13T06:11:05.039Z,843.75
2018-05-13T06:12:04.950Z,860.63
2018-05-13T06:13:04.859Z,916.88
2018-05-13T06:14:04.768Z,1001.25
2018-05-13T06:15:04.689Z,1006.88
2018-05-13T06:16:04.598Z,922.50
2018-05-13T06:17:04.508Z,877.50
2018-05-13T06:18:04.417Z,871.88
2018-05-13T06:19:04.326Z,871.88
2018-05-13T06:20:04.236Z,877.50
2018-05-13T06:21:04.159Z,888.75
2018-05-13T06:22:04.066Z,900.00
2018-05-13T06:23:03.987Z,905.63
2018-05-13T06:24:04.189Z,916.88
2018-05-13T06:25:03.798Z,922.50
2018-05-13T06:26:03.718Z,928.13
2018-05-13T06:27:03.625Z,945.00
2018-05-13T06:28:03.534Z,956.25
2018-05-13T06:29:03.443Z,956.25
2018-05-13T06:30:03.354Z,967.50
2018-05-13T06:31:03.273Z,961.88
2018-05-13T06:32:03.183Z,973.13
2018-05-13T06:33:03.092Z,973.13
2018-05-13T06:34:03.002Z,973.13
2018-05-13T06:35:02.923Z,978.75
2018-05-13T06:36:02.832Z,973.13
2018-05-13T06:37:02.741Z,990.00
2018-05-13T06:38:02.651Z,995.63
2018-05-13T06:39:02.572Z,995.63
2018-05-13T06:40:02.485Z,1006.88
2018-05-13T06:41:02.389Z,1018.13
2018-05-13T06:42:02.302Z,1040.63
2018-05-13T06:43:02.221Z,1068.75
2018-05-13T06:44:02.130Z,1254.38
2018-05-13T06:45:02.043Z,1760.63
2018-05-13T06:46:01.962Z,1935.00
2018-05-13T06:47:01.870Z,1828.13
2018-05-13T06:48:01.781Z,1845.00
2018-05-13T06:49:01.689Z,1873.13
2018-05-13T06:50:01.610Z,1890.00
2018-05-13T06:51:01.549Z,1890.00
2018-05-13T06:52:01.430Z,1861.88
2018-05-13T06:53:01.339Z,1878.75
2018-05-13T06:54:01.261Z,1861.88
2018-05-13T06:55:01.169Z,1873.13
2018-05-13T06:56:01.080Z,1923.75
2018-05-13T06:57:00.988Z,1918.13
2018-05-13T06:58:00.909Z,1963.13
2018-05-13T06:59:00.820Z,2008.13
2018-05-13T07:00:00.729Z,2019.38
2018-05-13T07:01:00.649Z,2013.75
2018-05-13T07:02:00.562Z,2019.38
2018-05-13T07:03:00.467Z,2053.13
2018-05-13T07:04:00.389Z,2092.50
2018-05-13T07:05:00.299Z,2109.38
2018-05-13T07:06:00.207Z,2137.50
2018-05-13T07:07:00.129Z,2143.13
2018-05-13T07:08:00.040Z,2165.63
2018-05-13T07:09:00.197Z,2165.63
2018-05-13T07:09:59.870Z,2148.75
2018-05-13T07:10:59.779Z,2199.38
2018-05-13T07:11:59.688Z,2205.00
2018-05-13T07:12:59.609Z,2216.25
2018-05-13T07:13:59.519Z,2193.75
2018-05-13T07:14:59.428Z,2210.63
2018-05-13T07:15:59.349Z,2255.63
2018-05-13T07:16:59.258Z,2244.38
2018-05-13T07:17:59.182Z,2295.00
2018-05-13T07:18:59.090Z,2368.13
2018-05-13T07:19:58.999Z,2351.25
2018-05-13T07:20:58.922Z,2413.13
2018-05-13T07:21:58.830Z,2401.88
2018-05-13T07:22:58.751Z,2401.88
2018-05-13T07:23:58.915Z,2452.50
2018-05-13T07:24:58.574Z,2508.75
2018-05-13T07:25:58.496Z,2553.75
2018-05-13T07:26:58.401Z,2542.50
2018-05-13T07:27:58.323Z,2587.50
2018-05-13T07:28:58.232Z,2593.13
2018-05-13T07:29:58.153Z,2593.13
2018-05-13T07:30:58.063Z,2610.00
2018-05-13T07:31:57.984Z,2638.13
2018-05-13T07:32:57.897Z,2666.25
2018-05-13T07:33:57.802Z,2643.75
2018-05-13T07:34:57.725Z,2649.38
2018-05-13T07:35:57.633Z,2716.88
2018-05-13T07:36:57.555Z,2694.38
2018-05-13T07:37:57.466Z,2711.25
2018-05-13T07:38:57.374Z,2733.75
2018-05-13T07:39:57.295Z,2711.25
2018-05-13T07:40:57.207Z,2745.00
2018-05-13T07:41:57.126Z,2739.38
2018-05-13T07:42:57.035Z,2733.75
2018-05-13T07:43:56.956Z,2745.00
2018-05-13T07:44:56.878Z,2750.63
2018-05-13T07:45:56.788Z,2795.63
2018-05-13T07:46:56.700Z,2818.13
2018-05-13T07:47:56.618Z,2598.75
2018-05-13T07:48:56.528Z,2019.38
2018-05-13T07:49:56.451Z,1321.88
2018-05-13T07:50:56.411Z,826.88
2018-05-13T07:51:56.285Z,641.25
2018-05-13T07:52:56.193Z,568.13
2018-05-13T07:53:56.112Z,545.63
2018-05-13T07:54:56.021Z,545.63
2018-05-13T07:55:55.930Z,540.00
2018-05-13T07:56:55.838Z,534.38
2018-05-13T07:57:55.807Z,534.38
2018-05-13T07:58:55.669Z,534.38
2018-05-13T07:59:55.579Z,528.75
2018-05-13T08:00:55.489Z,523.13
2018-05-13T08:01:55.410Z,523.13
2018-05-13T08:02:55.318Z,523.13
2018-05-13T08:03:55.229Z,523.13
2018-05-13T08:04:55.137Z,517.50
2018-05-13T08:05:55.047Z,517.50
2018-05-13T08:06:54.969Z,517.50
2018-05-13T08:07:54.877Z,523.13
2018-05-13T08:08:54.787Z,523.13
2018-05-13T08:09:54.695Z,511.88
2018-05-13T08:10:54.606Z,517.50
2018-05-13T08:11:54.515Z,511.88
2018-05-13T08:12:54.435Z,511.88
2018-05-13T08:13:54.346Z,511.88
2018-05-13T08:14:54.255Z,511.88
2018-05-13T08:15:54.169Z,506.25
2018-05-13T08:16:54.072Z,511.88
2018-05-13T08:17:53.982Z,506.25
2018-05-13T08:18:54.141Z,506.25
2018-05-13T08:19:53.800Z,500.63
2018-05-13T08:20:53.712Z,500.63
2018-05-13T08:21:53.620Z,506.25
2018-05-13T08:22:53.540Z,500.63
2018-05-13T08:23:53.450Z,506.25
2018-05-13T08:24:53.359Z,506.25
2018-05-13T08:25:53.267Z,511.88
2018-05-13T08:26:53.178Z,517.50
2018-05-13T08:27:53.088Z,528.75
2018-05-13T08:28:53.001Z,556.88
2018-05-13T08:29:52.905Z,613.13
2018-05-13T08:30:52.814Z,680.63
2018-05-13T08:31:52.723Z,832.50
2018-05-13T08:32:52.633Z,1068.75
2018-05-13T08:33:52.541Z,1811.25
2018-05-13T08:34:52.452Z,2823.75
2018-05-13T08:35:52.360Z,3431.25
2018-05-13T08:36:52.269Z,3504.38
2018-05-13T08:37:52.190Z,3510.00
2018-05-13T08:38:52.100Z,3465.00
2018-05-13T08:39:52.016Z,3476.25
2018-05-13T08:40:51.918Z,3549.38
2018-05-13T08:41:51.827Z,3673.13
2018-05-13T08:42:51.735Z,3751.88
2018-05-13T08:43:51.900Z,3667.50
2018-05-13T08:44:51.555Z,3549.38
2018-05-13T08:45:51.464Z,3487.50
2018-05-13T08:46:51.372Z,3504.38
2018-05-13T08:47:51.286Z,3504.38
2018-05-13T08:48:51.191Z,3571.88
2018-05-13T08:49:51.101Z,3661.88
2018-05-13T08:50:51.009Z,3785.63
2018-05-13T08:51:50.919Z,3830.63
2018-05-13T08:52:50.830Z,3751.88
2018-05-13T08:53:50.738Z,3718.13
2018-05-13T08:54:50.660Z,3706.88
2018-05-13T08:55:50.568Z,3667.50
2018-05-13T08:56:50.478Z,3785.63
2018-05-13T08:57:50.387Z,3909.38
2018-05-13T08:58:50.308Z,3858.75
2018-05-13T08:59:50.211Z,3796.88
2018-05-13T09:00:50.126Z,3819.38
2018-05-13T09:01:50.048Z,3830.63
2018-05-13T09:02:49.958Z,3684.38
2018-05-13T09:03:50.168Z,3836.25
2018-05-13T09:04:49.792Z,3909.38
2018-05-13T09:05:49.698Z,3825.00
2018-05-13T09:06:49.610Z,3819.38
2018-05-13T09:07:49.528Z,3808.13
2018-05-13T09:08:49.439Z,3886.88
2018-05-13T09:09:49.360Z,3875.63
2018-05-13T09:10:49.271Z,3864.38
2018-05-13T09:11:49.190Z,3667.50
2018-05-13T09:12:49.100Z,3678.75
2018-05-13T09:13:49.021Z,3791.25
2018-05-13T09:14:48.930Z,3954.38
2018-05-13T09:15:48.853Z,4016.25
2018-05-13T09:16:48.763Z,4050.00
2018-05-13T09:17:48.689Z,3954.38
2018-05-13T09:18:48.857Z,3875.63
2018-05-13T09:19:48.513Z,3926.25
2018-05-13T09:20:48.470Z,4072.50
2018-05-13T09:21:48.345Z,4038.75
2018-05-13T09:22:48.267Z,3954.38
2018-05-13T09:23:48.192Z,3881.25
2018-05-13T09:24:48.097Z,3954.38
2018-05-13T09:25:48.019Z,3937.50
2018-05-13T09:26:47.951Z,3993.75
2018-05-13T09:27:47.852Z,4027.50
2018-05-13T09:28:47.778Z,3858.75
2018-05-13T09:29:47.693Z,3791.25
2018-05-13T09:30:47.602Z,3948.75
2018-05-13T09:31:47.524Z,4078.13
2018-05-13T09:32:47.446Z,4050.00
2018-05-13T09:33:47.355Z,4021.88
2018-05-13T09:34:47.278Z,4100.63
2018-05-13T09:35:47.199Z,3993.75
2018-05-13T09:36:47.109Z,3920.63
2018-05-13T09:37:47.042Z,4072.50
2018-05-13T09:38:46.951Z,4134.38
2018-05-13T09:39:46.873Z,4140.00
2018-05-13T09:40:46.782Z,4072.50
2018-05-13T09:41:46.703Z,4021.88
2018-05-13T09:42:46.625Z,3931.88
2018-05-13T09:43:46.801Z,4061.25
2018-05-13T09:44:46.458Z,4140.00
2018-05-13T09:45:46.386Z,4263.75
2018-05-13T09:46:46.299Z,4117.50
2018-05-13T09:47:46.221Z,4168.13
2018-05-13T09:48:46.131Z,4269.38
2018-05-13T09:49:46.052Z,4314.38
2018-05-13T09:50:45.974Z,4308.75
2018-05-13T09:51:45.885Z,4342.50
2018-05-13T09:52:45.806Z,4280.63
2018-05-13T09:53:45.726Z,4151.25
2018-05-13T09:54:45.647Z,4218.75
2018-05-13T09:55:45.572Z,4252.50
2018-05-13T09:56:45.481Z,4196.25
2018-05-13T09:57:45.512Z,4297.50
2018-05-13T09:58:45.322Z,4190.63
2018-05-13T09:59:45.245Z,4173.75
2018-05-13T10:00:45.154Z,4286.25
2018-05-13T10:01:45.075Z,4269.38
2018-05-13T10:02:44.996Z,4331.25
2018-05-13T10:03:44.932Z,4286.25
2018-05-13T10:04:44.841Z,4438.13
2018-05-13T10:05:44.754Z,4528.13
2018-05-13T10:06:44.671Z,4426.88
2018-05-13T10:07:44.592Z,4404.38
2018-05-13T10:08:44.514Z,4449.38
2018-05-13T10:09:44.436Z,4308.75
2018-05-13T10:10:44.359Z,4438.13
2018-05-13T10:11:44.281Z,4590.00
2018-05-13T10:12:44.189Z,4348.13
2018-05-13T10:13:44.109Z,4269.38
2018-05-13T10:14:44.032Z,4286.25
2018-05-13T10:15:43.952Z,4241.25
2018-05-13T10:16:43.874Z,4359.38
2018-05-13T10:17:43.797Z,4533.75
2018-05-13T10:18:43.719Z,4505.63
2018-05-13T10:19:43.639Z,4460.63
2018-05-13T10:20:43.575Z,4365.00
2018-05-13T10:21:43.483Z,4353.75
2018-05-13T10:22:43.404Z,4404.38
2018-05-13T10:23:43.318Z,4415.63
2018-05-13T10:24:43.236Z,4410.00
2018-05-13T10:25:43.161Z,4404.38
2018-05-13T10:26:43.080Z,4078.13
2018-05-13T10:27:43.000Z,4348.13
2018-05-13T10:28:42.922Z,4325.63
2018-05-13T10:29:42.845Z,4432.50
2018-05-13T10:30:42.766Z,4561.88
2018-05-13T10:31:42.688Z,4606.88
2018-05-13T10:32:42.609Z,5000.63
2018-05-13T10:33:42.532Z,5608.13
2018-05-13T10:34:42.452Z,5771.25
2018-05-13T10:35:42.374Z,5793.75
2018-05-13T10:36:42.296Z,5990.63
2018-05-13T10:37:42.220Z,6176.25
2018-05-13T10:38:42.139Z,6243.75
2018-05-13T10:39:42.063Z,6232.50
2018-05-13T10:40:41.983Z,6406.88
2018-05-13T10:41:41.905Z,6401.25
2018-05-13T10:42:41.827Z,6226.88
2018-05-13T10:43:41.749Z,6350.63
2018-05-13T10:44:41.658Z,6435.00
2018-05-13T10:45:41.579Z,6283.13
2018-05-13T10:46:41.502Z,6429.38
2018-05-13T10:47:41.423Z,6693.75
2018-05-13T10:48:41.348Z,7464.38
2018-05-13T10:49:41.265Z,7903.13
2018-05-13T10:50:41.187Z,6491.25
2018-05-13T10:51:41.109Z,5118.75
2018-05-13T10:52:41.035Z,4989.38
2018-05-13T10:53:40.952Z,5023.13
2018-05-13T10:54:40.873Z,4595.63
2018-05-13T10:55:40.795Z,4561.88
2018-05-13T10:56:40.717Z,5203.13
2018-05-13T10:57:40.675Z,6339.38
2018-05-13T10:58:40.560Z,6930.00
2018-05-13T10:59:40.481Z,6789.38
2018-05-13T11:00:40.404Z,5731.88
2018-05-13T11:01:40.325Z,4927.50
2018-05-13T11:02:40.247Z,4876.88
2018-05-13T11:03:40.169Z,4910.63
2018-05-13T11:04:40.120Z,5293.13
2018-05-13T11:05:40.012Z,3870.00
2018-05-13T11:06:39.933Z,2385.00
2018-05-13T11:07:39.856Z,2013.75
2018-05-13T11:08:39.777Z,1946.25
2018-05-13T11:09:39.688Z,1850.63
2018-05-13T11:10:39.608Z,1749.38
2018-05-13T11:11:39.534Z,1698.75
2018-05-13T11:12:39.452Z,1620.00
2018-05-13T11:13:39.373Z,1625.63
2018-05-13T11:14:39.296Z,1653.75
2018-05-13T11:15:39.217Z,1603.13
2018-05-13T11:16:39.139Z,1546.88
2018-05-13T11:17:39.060Z,1535.63
2018-05-13T11:18:39.283Z,1535.63
2018-05-13T11:19:38.892Z,1580.63
2018-05-13T11:20:38.819Z,1546.88
2018-05-13T11:21:38.734Z,1181.25
2018-05-13T11:22:38.656Z,551.25
2018-05-13T11:23:38.827Z,320.63
2018-05-13T11:24:38.499Z,292.50
2018-05-13T11:25:38.420Z,275.63
2018-05-13T11:26:38.342Z,270.00
2018-05-13T11:27:38.264Z,264.38
2018-05-13T11:28:38.187Z,264.38
2018-05-13T11:29:38.096Z,258.75
2018-05-13T11:30:38.017Z,258.75
2018-05-13T11:31:37.939Z,253.13
2018-05-13T11:32:37.861Z,253.13
2018-05-13T11:33:37.769Z,247.50
2018-05-13T11:34:37.690Z,247.50
2018-05-13T11:35:37.612Z,247.50
2018-05-13T11:36:37.543Z,247.50
2018-05-13T11:37:37.444Z,247.50
2018-05-13T11:38:37.353Z,247.50
2018-05-13T11:39:37.274Z,247.50
2018-05-13T11:40:37.184Z,247.50
2018-05-13T11:41:37.107Z,241.88
2018-05-13T11:42:37.014Z,241.88
2018-05-13T11:43:36.939Z,241.88
2018-05-13T11:44:36.846Z,241.88
2018-05-13T11:45:36.755Z,236.25
2018-05-13T11:46:36.686Z,236.25
2018-05-13T11:47:36.586Z,236.25
2018-05-13T11:48:36.796Z,236.25
2018-05-13T11:49:36.415Z,236.25
2018-05-13T11:50:36.328Z,236.25
2018-05-13T11:51:36.248Z,236.25
2018-05-13T11:52:36.156Z,241.88
2018-05-13T11:53:36.067Z,247.50
2018-05-13T11:54:35.980Z,641.25
2018-05-13T11:55:35.896Z,1586.25
2018-05-13T11:56:35.807Z,1738.13
2018-05-13T11:57:35.714Z,1642.50
2018-05-13T11:58:35.875Z,2508.75
2018-05-13T11:59:35.547Z,3459.38
2018-05-13T12:00:35.455Z,3678.75
2018-05-13T12:01:35.365Z,3931.88
2018-05-13T12:02:35.273Z,3943.13
2018-05-13T12:03:35.203Z,2041.88
2018-05-13T12:04:35.104Z,438.75
2018-05-13T12:05:35.014Z,348.75
2018-05-13T12:06:34.923Z,298.13
2018-05-13T12:07:34.847Z,275.63
2018-05-13T12:08:34.753Z,270.00
2018-05-13T12:09:34.675Z,258.75
2018-05-13T12:10:34.589Z,258.75
2018-05-13T12:11:34.495Z,253.13
2018-05-13T12:12:34.415Z,247.50
2018-05-13T12:13:34.329Z,258.75
2018-05-13T12:14:34.251Z,309.38
2018-05-13T12:15:34.155Z,427.50
2018-05-13T12:16:34.076Z,365.63
2018-05-13T12:17:33.987Z,264.38
2018-05-13T12:18:34.157Z,247.50
2018-05-13T12:19:33.817Z,241.88
2018-05-13T12:20:33.739Z,236.25
2018-05-13T12:21:33.648Z,236.25
2018-05-13T12:22:33.570Z,236.25
2018-05-13T12:23:33.478Z,236.25
2018-05-13T12:24:33.400Z,236.25
2018-05-13T12:25:33.310Z,241.88
2018-05-13T12:26:33.218Z,247.50
2018-05-13T12:27:33.140Z,298.13
2018-05-13T12:28:33.050Z,438.75
2018-05-13T12:29:32.958Z,635.63
2018-05-13T12:30:32.879Z,787.50
2018-05-13T12:31:32.791Z,804.38
2018-05-13T12:32:32.698Z,675.00
2018-05-13T12:33:32.621Z,585.00